sensor_id;sensor_type;location;lat;lon;timestamp;P1;durP1;ratioP1;P2;durP2;ratioP2
24483;SDS011;12643;51.620;7.548;2023-06-14T00:00:11;5.15;;;4.40;;
24483;SDS011;12643;51.620;7.548;2023-06-14T00:02:40;7.47;;;3.70;;
24483;SDS011;12643;51.620;7.548;2023-06-14T00:05:08;7.97;;;4.10;;
24483;SDS011;12643;51.620;7.548;2023-06-14T00:07:38;7.03;;;3.75;;
24483;SDS011;12643;51.620;7.548;2023-06-14T00:10:09;7.53;;;4.45;;
24483;SDS011;12643;51.620;7.548;2023-06-14T00:12:37;3.72;;;3.35;;
24483;SDS011;12643;51.620;7.548;2023-06-14T00:15:07;6.97;;;3.83;;
24483;SDS011;12643;51.620;7.548;2023-06-14T00:17:36;4.67;;;3.63;;
24483;SDS011;12643;51.620;7.548;2023-06-14T00:20:04;4.40;;;3.47;;
24483;SDS011;12643;51.620;7.548;2023-06-14T00:22:33;8.13;;;3.53;;
24483;SDS011;12643;51.620;7.548;2023-06-14T00:25:02;8.38;;;3.58;;
24483;SDS011;12643;51.620;7.548;2023-06-14T00:27:30;9.20;;;4.03;;
24483;SDS011;12643;51.620;7.548;2023-06-14T00:29:58;5.70;;;3.60;;
24483;SDS011;12643;51.620;7.548;2023-06-14T00:32:27;7.53;;;4.15;;
24483;SDS011;12643;51.620;7.548;2023-06-14T00:34:55;7.47;;;3.17;;
24483;SDS011;12643;51.620;7.548;2023-06-14T00:37:23;5.72;;;3.47;;
24483;SDS011;12643;51.620;7.548;2023-06-14T00:39:51;4.63;;;3.63;;
24483;SDS011;12643;51.620;7.548;2023-06-14T00:42:25;4.00;;;3.38;;
24483;SDS011;12643;51.620;7.548;2023-06-14T00:44:53;4.28;;;3.17;;
24483;SDS011;12643;51.620;7.548;2023-06-14T00:47:21;7.53;;;3.53;;
24483;SDS011;12643;51.620;7.548;2023-06-14T00:49:50;4.75;;;3.42;;
24483;SDS011;12643;51.620;7.548;2023-06-14T00:52:19;4.47;;;3.15;;
24483;SDS011;12643;51.620;7.548;2023-06-14T00:54:47;9.00;;;4.22;;
24483;SDS011;12643;51.620;7.548;2023-06-14T00:57:16;6.38;;;3.78;;
24483;SDS011;12643;51.620;7.548;2023-06-14T00:59:44;6.60;;;3.53;;
24483;SDS011;12643;51.620;7.548;2023-06-14T01:02:13;6.72;;;3.28;;
24483;SDS011;12643;51.620;7.548;2023-06-14T01:04:43;6.32;;;2.92;;
24483;SDS011;12643;51.620;7.548;2023-06-14T01:07:18;5.10;;;2.95;;
24483;SDS011;12643;51.620;7.548;2023-06-14T01:09:55;5.40;;;3.10;;
24483;SDS011;12643;51.620;7.548;2023-06-14T01:12:31;3.45;;;3.15;;
24483;SDS011;12643;51.620;7.548;2023-06-14T01:15:03;5.22;;;3.25;;
24483;SDS011;12643;51.620;7.548;2023-06-14T01:17:33;5.63;;;3.05;;
24483;SDS011;12643;51.620;7.548;2023-06-14T01:20:02;5.32;;;3.15;;
24483;SDS011;12643;51.620;7.548;2023-06-14T01:22:36;6.63;;;3.13;;
24483;SDS011;12643;51.620;7.548;2023-06-14T01:25:06;5.10;;;2.70;;
24483;SDS011;12643;51.620;7.548;2023-06-14T01:27:34;4.78;;;3.58;;
24483;SDS011;12643;51.620;7.548;2023-06-14T01:30:02;6.45;;;3.75;;
24483;SDS011;12643;51.620;7.548;2023-06-14T01:32:31;5.85;;;3.35;;
24483;SDS011;12643;51.620;7.548;2023-06-14T01:34:59;7.18;;;3.47;;
24483;SDS011;12643;51.620;7.548;2023-06-14T01:37:29;4.18;;;3.28;;
24483;SDS011;12643;51.620;7.548;2023-06-14T01:39:58;8.90;;;3.50;;
24483;SDS011;12643;51.620;7.548;2023-06-14T01:42:28;8.18;;;3.58;;
24483;SDS011;12643;51.620;7.548;2023-06-14T01:44:58;5.43;;;3.00;;
24483;SDS011;12643;51.620;7.548;2023-06-14T01:47:26;9.30;;;3.13;;
24483;SDS011;12643;51.620;7.548;2023-06-14T01:49:55;6.20;;;3.42;;
24483;SDS011;12643;51.620;7.548;2023-06-14T01:52:22;7.43;;;3.20;;
24483;SDS011;12643;51.620;7.548;2023-06-14T01:54:50;3.63;;;3.08;;
24483;SDS011;12643;51.620;7.548;2023-06-14T01:57:18;9.00;;;3.50;;
24483;SDS011;12643;51.620;7.548;2023-06-14T01:59:48;6.25;;;3.58;;
24483;SDS011;12643;51.620;7.548;2023-06-14T02:02:16;4.72;;;3.25;;
24483;SDS011;12643;51.620;7.548;2023-06-14T02:04:44;7.38;;;3.55;;
24483;SDS011;12643;51.620;7.548;2023-06-14T02:07:12;6.60;;;3.10;;
24483;SDS011;12643;51.620;7.548;2023-06-14T02:09:40;10.82;;;3.40;;
24483;SDS011;12643;51.620;7.548;2023-06-14T02:12:08;7.00;;;3.70;;
24483;SDS011;12643;51.620;7.548;2023-06-14T02:14:37;5.10;;;3.17;;
24483;SDS011;12643;51.620;7.548;2023-06-14T02:17:06;8.85;;;3.13;;
24483;SDS011;12643;51.620;7.548;2023-06-14T02:19:34;6.22;;;3.28;;
24483;SDS011;12643;51.620;7.548;2023-06-14T02:22:02;5.47;;;3.25;;
24483;SDS011;12643;51.620;7.548;2023-06-14T02:24:30;4.00;;;2.75;;
24483;SDS011;12643;51.620;7.548;2023-06-14T02:26:57;8.27;;;3.75;;
24483;SDS011;12643;51.620;7.548;2023-06-14T02:29:25;5.95;;;3.08;;
24483;SDS011;12643;51.620;7.548;2023-06-14T02:31:54;8.50;;;3.17;;
24483;SDS011;12643;51.620;7.548;2023-06-14T02:34:23;11.05;;;3.38;;
24483;SDS011;12643;51.620;7.548;2023-06-14T02:36:51;4.78;;;2.90;;
24483;SDS011;12643;51.620;7.548;2023-06-14T02:39:19;5.50;;;2.97;;
24483;SDS011;12643;51.620;7.548;2023-06-14T02:41:48;3.45;;;3.00;;
24483;SDS011;12643;51.620;7.548;2023-06-14T02:44:17;7.38;;;3.13;;
24483;SDS011;12643;51.620;7.548;2023-06-14T02:46:45;6.35;;;3.22;;
24483;SDS011;12643;51.620;7.548;2023-06-14T02:49:13;6.30;;;3.13;;
24483;SDS011;12643;51.620;7.548;2023-06-14T02:51:42;5.75;;;3.45;;
24483;SDS011;12643;51.620;7.548;2023-06-14T02:54:10;4.28;;;2.90;;
24483;SDS011;12643;51.620;7.548;2023-06-14T02:56:38;10.48;;;3.55;;
24483;SDS011;12643;51.620;7.548;2023-06-14T02:59:06;5.10;;;3.03;;
24483;SDS011;12643;51.620;7.548;2023-06-14T03:01:34;8.38;;;3.58;;
24483;SDS011;12643;51.620;7.548;2023-06-14T03:04:06;6.25;;;3.22;;
24483;SDS011;12643;51.620;7.548;2023-06-14T03:06:34;7.57;;;3.17;;
24483;SDS011;12643;51.620;7.548;2023-06-14T03:09:04;8.68;;;3.10;;
24483;SDS011;12643;51.620;7.548;2023-06-14T03:11:34;6.00;;;3.10;;
24483;SDS011;12643;51.620;7.548;2023-06-14T03:14:02;4.20;;;2.97;;
24483;SDS011;12643;51.620;7.548;2023-06-14T03:16:32;7.93;;;3.20;;
24483;SDS011;12643;51.620;7.548;2023-06-14T03:19:00;8.23;;;2.85;;
24483;SDS011;12643;51.620;7.548;2023-06-14T03:21:29;6.35;;;3.25;;
24483;SDS011;12643;51.620;7.548;2023-06-14T03:23:56;5.60;;;3.05;;
24483;SDS011;12643;51.620;7.548;2023-06-14T03:26:26;7.30;;;2.95;;
24483;SDS011;12643;51.620;7.548;2023-06-14T03:28:53;7.65;;;3.17;;
24483;SDS011;12643;51.620;7.548;2023-06-14T03:31:21;5.07;;;3.65;;
24483;SDS011;12643;51.620;7.548;2023-06-14T03:33:49;5.18;;;3.20;;
24483;SDS011;12643;51.620;7.548;2023-06-14T03:36:17;6.95;;;3.13;;
24483;SDS011;12643;51.620;7.548;2023-06-14T03:38:44;5.65;;;3.20;;
24483;SDS011;12643;51.620;7.548;2023-06-14T03:41:12;4.95;;;3.55;;
24483;SDS011;12643;51.620;7.548;2023-06-14T03:43:41;7.25;;;3.15;;
24483;SDS011;12643;51.620;7.548;2023-06-14T03:46:09;7.35;;;3.35;;
24483;SDS011;12643;51.620;7.548;2023-06-14T03:48:37;6.00;;;2.75;;
24483;SDS011;12643;51.620;7.548;2023-06-14T03:51:05;6.72;;;3.38;;
24483;SDS011;12643;51.620;7.548;2023-06-14T03:53:33;5.20;;;3.22;;
24483;SDS011;12643;51.620;7.548;2023-06-14T03:56:01;7.35;;;3.50;;
24483;SDS011;12643;51.620;7.548;2023-06-14T03:58:29;5.68;;;3.25;;
24483;SDS011;12643;51.620;7.548;2023-06-14T04:00:58;8.07;;;3.47;;
24483;SDS011;12643;51.620;7.548;2023-06-14T04:03:27;4.82;;;2.85;;
24483;SDS011;12643;51.620;7.548;2023-06-14T04:05:55;4.78;;;3.40;;
24483;SDS011;12643;51.620;7.548;2023-06-14T04:08:25;5.75;;;3.22;;
24483;SDS011;12643;51.620;7.548;2023-06-14T04:10:53;6.75;;;2.92;;
24483;SDS011;12643;51.620;7.548;2023-06-14T04:13:20;7.45;;;3.03;;
24483;SDS011;12643;51.620;7.548;2023-06-14T04:15:48;5.00;;;3.08;;
24483;SDS011;12643;51.620;7.548;2023-06-14T04:18:17;7.50;;;3.10;;
24483;SDS011;12643;51.620;7.548;2023-06-14T04:20:46;5.88;;;3.40;;
24483;SDS011;12643;51.620;7.548;2023-06-14T04:23:14;4.95;;;3.38;;
24483;SDS011;12643;51.620;7.548;2023-06-14T04:25:44;5.38;;;3.10;;
24483;SDS011;12643;51.620;7.548;2023-06-14T04:28:12;6.40;;;3.17;;
24483;SDS011;12643;51.620;7.548;2023-06-14T04:30:41;8.77;;;3.22;;
24483;SDS011;12643;51.620;7.548;2023-06-14T04:33:10;5.07;;;3.05;;
24483;SDS011;12643;51.620;7.548;2023-06-14T04:35:39;3.30;;;2.72;;
24483;SDS011;12643;51.620;7.548;2023-06-14T04:38:07;7.68;;;3.28;;
24483;SDS011;12643;51.620;7.548;2023-06-14T04:40:35;6.60;;;2.80;;
24483;SDS011;12643;51.620;7.548;2023-06-14T04:43:08;5.68;;;2.95;;
24483;SDS011;12643;51.620;7.548;2023-06-14T04:45:38;5.47;;;3.13;;
24483;SDS011;12643;51.620;7.548;2023-06-14T04:48:06;11.80;;;3.15;;
24483;SDS011;12643;51.620;7.548;2023-06-14T04:50:34;9.50;;;3.33;;
24483;SDS011;12643;51.620;7.548;2023-06-14T04:53:03;4.55;;;2.75;;
24483;SDS011;12643;51.620;7.548;2023-06-14T04:55:32;7.18;;;2.90;;
24483;SDS011;12643;51.620;7.548;2023-06-14T04:58:00;7.75;;;3.10;;
24483;SDS011;12643;51.620;7.548;2023-06-14T05:00:28;4.72;;;3.13;;
24483;SDS011;12643;51.620;7.548;2023-06-14T05:02:57;6.32;;;2.63;;
24483;SDS011;12643;51.620;7.548;2023-06-14T05:05:26;6.38;;;3.05;;
24483;SDS011;12643;51.620;7.548;2023-06-14T05:07:54;6.60;;;2.97;;
24483;SDS011;12643;51.620;7.548;2023-06-14T05:10:24;5.70;;;3.13;;
24483;SDS011;12643;51.620;7.548;2023-06-14T05:12:52;5.22;;;3.22;;
24483;SDS011;12643;51.620;7.548;2023-06-14T05:15:20;5.07;;;2.95;;
24483;SDS011;12643;51.620;7.548;2023-06-14T05:17:50;12.82;;;2.90;;
24483;SDS011;12643;51.620;7.548;2023-06-14T05:20:20;7.38;;;3.05;;
24483;SDS011;12643;51.620;7.548;2023-06-14T05:22:50;3.13;;;2.78;;
24483;SDS011;12643;51.620;7.548;2023-06-14T05:25:18;6.90;;;2.45;;
24483;SDS011;12643;51.620;7.548;2023-06-14T05:27:48;10.70;;;3.10;;
24483;SDS011;12643;51.620;7.548;2023-06-14T05:30:16;5.85;;;3.08;;
24483;SDS011;12643;51.620;7.548;2023-06-14T05:32:44;4.72;;;2.40;;
24483;SDS011;12643;51.620;7.548;2023-06-14T05:35:11;3.55;;;2.80;;
24483;SDS011;12643;51.620;7.548;2023-06-14T05:37:39;5.90;;;3.03;;
24483;SDS011;12643;51.620;7.548;2023-06-14T05:40:08;7.60;;;2.95;;
24483;SDS011;12643;51.620;7.548;2023-06-14T05:42:36;7.75;;;3.15;;
24483;SDS011;12643;51.620;7.548;2023-06-14T05:45:06;6.82;;;2.85;;
24483;SDS011;12643;51.620;7.548;2023-06-14T05:47:34;7.03;;;3.28;;
24483;SDS011;12643;51.620;7.548;2023-06-14T05:50:02;3.22;;;2.25;;
24483;SDS011;12643;51.620;7.548;2023-06-14T05:52:31;7.88;;;2.90;;
24483;SDS011;12643;51.620;7.548;2023-06-14T05:54:59;12.52;;;3.00;;
24483;SDS011;12643;51.620;7.548;2023-06-14T05:57:26;5.10;;;2.85;;
24483;SDS011;12643;51.620;7.548;2023-06-14T05:59:54;5.60;;;2.97;;
24483;SDS011;12643;51.620;7.548;2023-06-14T06:02:23;14.20;;;3.10;;
24483;SDS011;12643;51.620;7.548;2023-06-14T06:04:51;9.95;;;3.53;;
24483;SDS011;12643;51.620;7.548;2023-06-14T06:07:19;8.75;;;2.92;;
24483;SDS011;12643;51.620;7.548;2023-06-14T06:09:47;8.15;;;3.20;;
24483;SDS011;12643;51.620;7.548;2023-06-14T06:12:15;6.68;;;3.17;;
24483;SDS011;12643;51.620;7.548;2023-06-14T06:14:43;6.90;;;3.35;;
24483;SDS011;12643;51.620;7.548;2023-06-14T06:17:11;11.93;;;2.88;;
24483;SDS011;12643;51.620;7.548;2023-06-14T06:19:40;13.70;;;2.80;;
24483;SDS011;12643;51.620;7.548;2023-06-14T06:22:08;10.65;;;2.83;;
24483;SDS011;12643;51.620;7.548;2023-06-14T06:24:35;10.02;;;3.03;;
24483;SDS011;12643;51.620;7.548;2023-06-14T06:27:04;7.70;;;3.35;;
24483;SDS011;12643;51.620;7.548;2023-06-14T06:29:33;7.22;;;2.97;;
24483;SDS011;12643;51.620;7.548;2023-06-14T06:32:01;10.68;;;3.35;;
24483;SDS011;12643;51.620;7.548;2023-06-14T06:34:29;4.78;;;2.80;;
24483;SDS011;12643;51.620;7.548;2023-06-14T06:36:59;10.18;;;3.35;;
24483;SDS011;12643;51.620;7.548;2023-06-14T06:39:27;4.80;;;2.90;;
24483;SDS011;12643;51.620;7.548;2023-06-14T06:41:54;10.57;;;2.72;;
24483;SDS011;12643;51.620;7.548;2023-06-14T06:44:22;5.75;;;2.60;;
24483;SDS011;12643;51.620;7.548;2023-06-14T06:46:50;7.47;;;2.85;;
24483;SDS011;12643;51.620;7.548;2023-06-14T06:49:18;6.38;;;2.50;;
24483;SDS011;12643;51.620;7.548;2023-06-14T06:52:00;7.80;;;2.95;;
24483;SDS011;12643;51.620;7.548;2023-06-14T06:54:28;8.30;;;2.90;;
24483;SDS011;12643;51.620;7.548;2023-06-14T06:56:56;6.35;;;2.53;;
24483;SDS011;12643;51.620;7.548;2023-06-14T06:59:24;8.18;;;3.10;;
24483;SDS011;12643;51.620;7.548;2023-06-14T07:01:52;6.15;;;3.05;;
24483;SDS011;12643;51.620;7.548;2023-06-14T07:04:20;4.57;;;2.97;;
24483;SDS011;12643;51.620;7.548;2023-06-14T07:06:47;6.35;;;2.65;;
24483;SDS011;12643;51.620;7.548;2023-06-14T07:09:17;7.22;;;2.55;;
24483;SDS011;12643;51.620;7.548;2023-06-14T07:11:46;5.05;;;3.10;;
24483;SDS011;12643;51.620;7.548;2023-06-14T07:14:14;7.13;;;2.88;;
24483;SDS011;12643;51.620;7.548;2023-06-14T07:16:42;4.63;;;2.50;;
24483;SDS011;12643;51.620;7.548;2023-06-14T07:19:11;9.95;;;2.50;;
24483;SDS011;12643;51.620;7.548;2023-06-14T07:21:39;5.15;;;2.42;;
24483;SDS011;12643;51.620;7.548;2023-06-14T07:24:07;16.17;;;3.60;;
24483;SDS011;12643;51.620;7.548;2023-06-14T07:26:36;16.38;;;3.15;;
24483;SDS011;12643;51.620;7.548;2023-06-14T07:29:04;4.78;;;2.63;;
24483;SDS011;12643;51.620;7.548;2023-06-14T07:31:32;32.72;;;5.38;;
24483;SDS011;12643;51.620;7.548;2023-06-14T07:34:00;8.32;;;2.90;;
24483;SDS011;12643;51.620;7.548;2023-06-14T07:36:27;12.40;;;3.67;;
24483;SDS011;12643;51.620;7.548;2023-06-14T07:38:55;4.75;;;2.28;;
24483;SDS011;12643;51.620;7.548;2023-06-14T07:41:23;6.10;;;2.03;;
24483;SDS011;12643;51.620;7.548;2023-06-14T07:43:52;3.13;;;1.98;;
24483;SDS011;12643;51.620;7.548;2023-06-14T07:46:20;11.40;;;2.10;;
24483;SDS011;12643;51.620;7.548;2023-06-14T07:48:48;4.07;;;1.92;;
24483;SDS011;12643;51.620;7.548;2023-06-14T07:51:17;2.95;;;2.05;;
24483;SDS011;12643;51.620;7.548;2023-06-14T07:53:45;4.53;;;2.17;;
24483;SDS011;12643;51.620;7.548;2023-06-14T07:56:13;5.13;;;1.92;;
24483;SDS011;12643;51.620;7.548;2023-06-14T07:58:40;14.65;;;3.15;;
24483;SDS011;12643;51.620;7.548;2023-06-14T08:01:10;6.07;;;1.67;;
24483;SDS011;12643;51.620;7.548;2023-06-14T08:03:38;4.03;;;1.83;;
24483;SDS011;12643;51.620;7.548;2023-06-14T08:06:06;4.35;;;1.52;;
24483;SDS011;12643;51.620;7.548;2023-06-14T08:08:34;7.22;;;1.48;;
24483;SDS011;12643;51.620;7.548;2023-06-14T08:11:01;3.22;;;1.95;;
24483;SDS011;12643;51.620;7.548;2023-06-14T08:13:29;3.45;;;1.63;;
24483;SDS011;12643;51.620;7.548;2023-06-14T08:15:57;5.03;;;1.60;;
24483;SDS011;12643;51.620;7.548;2023-06-14T08:18:28;1.85;;;1.60;;
24483;SDS011;12643;51.620;7.548;2023-06-14T08:20:56;10.75;;;2.03;;
24483;SDS011;12643;51.620;7.548;2023-06-14T08:23:24;4.78;;;1.73;;
24483;SDS011;12643;51.620;7.548;2023-06-14T08:25:52;2.30;;;1.42;;
24483;SDS011;12643;51.620;7.548;2023-06-14T08:28:20;3.83;;;1.30;;
24483;SDS011;12643;51.620;7.548;2023-06-14T08:30:48;8.60;;;2.00;;
24483;SDS011;12643;51.620;7.548;2023-06-14T08:33:16;3.10;;;1.48;;
24483;SDS011;12643;51.620;7.548;2023-06-14T08:35:45;1.90;;;1.40;;
24483;SDS011;12643;51.620;7.548;2023-06-14T08:38:14;2.33;;;1.33;;
24483;SDS011;12643;51.620;7.548;2023-06-14T08:40:43;4.30;;;1.30;;
24483;SDS011;12643;51.620;7.548;2023-06-14T08:45:42;3.90;;;1.35;;
24483;SDS011;12643;51.620;7.548;2023-06-14T08:48:10;3.92;;;1.30;;
24483;SDS011;12643;51.620;7.548;2023-06-14T08:50:42;5.78;;;1.58;;
24483;SDS011;12643;51.620;7.548;2023-06-14T08:53:13;5.47;;;1.20;;
24483;SDS011;12643;51.620;7.548;2023-06-14T08:55:46;1.10;;;1.00;;
24483;SDS011;12643;51.620;7.548;2023-06-14T08:58:15;2.67;;;1.00;;
24483;SDS011;12643;51.620;7.548;2023-06-14T09:00:43;1.60;;;1.10;;
24483;SDS011;12643;51.620;7.548;2023-06-14T09:03:11;4.15;;;1.05;;
24483;SDS011;12643;51.620;7.548;2023-06-14T09:05:40;11.10;;;2.22;;
24483;SDS011;12643;51.620;7.548;2023-06-14T09:08:09;7.00;;;1.55;;
24483;SDS011;12643;51.620;7.548;2023-06-14T09:10:37;2.00;;;1.30;;
24483;SDS011;12643;51.620;7.548;2023-06-14T09:13:06;2.95;;;1.25;;
24483;SDS011;12643;51.620;7.548;2023-06-14T09:15:34;1.73;;;1.17;;
24483;SDS011;12643;51.620;7.548;2023-06-14T09:18:03;2.00;;;1.20;;
24483;SDS011;12643;51.620;7.548;2023-06-14T09:20:31;3.35;;;1.15;;
24483;SDS011;12643;51.620;7.548;2023-06-14T09:23:00;2.42;;;1.10;;
24483;SDS011;12643;51.620;7.548;2023-06-14T09:25:29;4.03;;;1.30;;
24483;SDS011;12643;51.620;7.548;2023-06-14T09:27:57;3.70;;;0.98;;
24483;SDS011;12643;51.620;7.548;2023-06-14T09:30:25;8.73;;;1.10;;
24483;SDS011;12643;51.620;7.548;2023-06-14T09:32:52;1.35;;;1.23;;
24483;SDS011;12643;51.620;7.548;2023-06-14T09:35:20;2.88;;;1.17;;
24483;SDS011;12643;51.620;7.548;2023-06-14T09:37:48;2.90;;;1.30;;
24483;SDS011;12643;51.620;7.548;2023-06-14T09:40:20;11.32;;;1.60;;
24483;SDS011;12643;51.620;7.548;2023-06-14T09:42:49;2.75;;;1.45;;
24483;SDS011;12643;51.620;7.548;2023-06-14T09:45:18;3.70;;;1.30;;
24483;SDS011;12643;51.620;7.548;2023-06-14T09:47:48;2.88;;;1.30;;
24483;SDS011;12643;51.620;7.548;2023-06-14T09:50:16;3.13;;;1.75;;
24483;SDS011;12643;51.620;7.548;2023-06-14T09:52:44;3.03;;;1.08;;
24483;SDS011;12643;51.620;7.548;2023-06-14T09:55:14;1.27;;;1.17;;
24483;SDS011;12643;51.620;7.548;2023-06-14T09:57:43;3.97;;;1.40;;
24483;SDS011;12643;51.620;7.548;2023-06-14T10:00:15;2.90;;;1.65;;
24483;SDS011;12643;51.620;7.548;2023-06-14T10:02:46;3.15;;;1.17;;
24483;SDS011;12643;51.620;7.548;2023-06-14T10:05:21;2.38;;;1.30;;
24483;SDS011;12643;51.620;7.548;2023-06-14T10:07:52;7.07;;;1.30;;
24483;SDS011;12643;51.620;7.548;2023-06-14T10:10:23;3.08;;;1.13;;
24483;SDS011;12643;51.620;7.548;2023-06-14T10:12:51;4.32;;;1.42;;
24483;SDS011;12643;51.620;7.548;2023-06-14T10:15:22;2.08;;;1.27;;
24483;SDS011;12643;51.620;7.548;2023-06-14T10:17:58;2.00;;;1.38;;
24483;SDS011;12643;51.620;7.548;2023-06-14T10:20:48;2.42;;;1.38;;
24483;SDS011;12643;51.620;7.548;2023-06-14T10:23:22;2.50;;;1.27;;
24483;SDS011;12643;51.620;7.548;2023-06-14T10:25:54;4.38;;;1.50;;
24483;SDS011;12643;51.620;7.548;2023-06-14T10:28:25;4.88;;;1.92;;
24483;SDS011;12643;51.620;7.548;2023-06-14T10:31:07;4.63;;;1.40;;
24483;SDS011;12643;51.620;7.548;2023-06-14T10:33:36;3.92;;;1.52;;
24483;SDS011;12643;51.620;7.548;2023-06-14T10:36:25;4.93;;;1.40;;
24483;SDS011;12643;51.620;7.548;2023-06-14T10:38:59;3.67;;;1.40;;
24483;SDS011;12643;51.620;7.548;2023-06-14T10:41:31;2.90;;;1.50;;
24483;SDS011;12643;51.620;7.548;2023-06-14T10:47:23;2.03;;;1.40;;
24483;SDS011;12643;51.620;7.548;2023-06-14T10:49:52;2.80;;;1.60;;
24483;SDS011;12643;51.620;7.548;2023-06-14T10:52:22;7.72;;;1.98;;
24483;SDS011;12643;51.620;7.548;2023-06-14T10:57:38;2.42;;;1.67;;
24483;SDS011;12643;51.620;7.548;2023-06-14T11:00:07;2.33;;;1.90;;
24483;SDS011;12643;51.620;7.548;2023-06-14T11:06:01;4.85;;;1.98;;
24483;SDS011;12643;51.620;7.548;2023-06-14T11:11:36;5.03;;;1.80;;
24483;SDS011;12643;51.620;7.548;2023-06-14T11:14:08;5.47;;;2.08;;
24483;SDS011;12643;51.620;7.548;2023-06-14T11:16:36;2.22;;;1.98;;
24483;SDS011;12643;51.620;7.548;2023-06-14T11:19:05;4.82;;;1.85;;
24483;SDS011;12643;51.620;7.548;2023-06-14T11:21:34;3.80;;;1.88;;
24483;SDS011;12643;51.620;7.548;2023-06-14T11:24:09;4.22;;;1.65;;
24483;SDS011;12643;51.620;7.548;2023-06-14T11:26:37;7.53;;;2.00;;
24483;SDS011;12643;51.620;7.548;2023-06-14T11:29:07;6.72;;;2.10;;
24483;SDS011;12643;51.620;7.548;2023-06-14T11:31:34;3.47;;;2.13;;
24483;SDS011;12643;51.620;7.548;2023-06-14T11:34:02;8.57;;;2.42;;
24483;SDS011;12643;51.620;7.548;2023-06-14T11:36:33;12.60;;;2.45;;
24483;SDS011;12643;51.620;7.548;2023-06-14T11:39:03;7.10;;;2.10;;
24483;SDS011;12643;51.620;7.548;2023-06-14T11:41:32;5.28;;;2.10;;
24483;SDS011;12643;51.620;7.548;2023-06-14T11:44:02;6.53;;;2.33;;
24483;SDS011;12643;51.620;7.548;2023-06-14T11:46:31;5.60;;;1.90;;
24483;SDS011;12643;51.620;7.548;2023-06-14T11:48:59;3.28;;;1.90;;
24483;SDS011;12643;51.620;7.548;2023-06-14T11:51:28;14.35;;;2.38;;
24483;SDS011;12643;51.620;7.548;2023-06-14T11:53:58;4.45;;;2.10;;
24483;SDS011;12643;51.620;7.548;2023-06-14T11:56:28;6.68;;;2.15;;
24483;SDS011;12643;51.620;7.548;2023-06-14T11:58:57;4.20;;;1.90;;
24483;SDS011;12643;51.620;7.548;2023-06-14T12:01:25;3.15;;;1.85;;
24483;SDS011;12643;51.620;7.548;2023-06-14T12:03:54;3.75;;;2.10;;
24483;SDS011;12643;51.620;7.548;2023-06-14T12:06:28;4.72;;;2.08;;
24483;SDS011;12643;51.620;7.548;2023-06-14T12:09:00;3.13;;;2.20;;
24483;SDS011;12643;51.620;7.548;2023-06-14T12:11:32;4.68;;;2.38;;
24483;SDS011;12643;51.620;7.548;2023-06-14T12:14:00;8.23;;;1.88;;
24483;SDS011;12643;51.620;7.548;2023-06-14T12:16:31;2.15;;;1.95;;
24483;SDS011;12643;51.620;7.548;2023-06-14T12:19:00;5.45;;;2.47;;
24483;SDS011;12643;51.620;7.548;2023-06-14T12:21:36;8.13;;;2.40;;
24483;SDS011;12643;51.620;7.548;2023-06-14T12:24:07;4.57;;;2.03;;
24483;SDS011;12643;51.620;7.548;2023-06-14T12:26:37;4.78;;;2.35;;
24483;SDS011;12643;51.620;7.548;2023-06-14T12:29:06;3.53;;;2.28;;
24483;SDS011;12643;51.620;7.548;2023-06-14T12:31:34;4.10;;;2.65;;
24483;SDS011;12643;51.620;7.548;2023-06-14T12:34:02;3.55;;;2.40;;
24483;SDS011;12643;51.620;7.548;2023-06-14T12:36:30;4.57;;;2.30;;
24483;SDS011;12643;51.620;7.548;2023-06-14T12:38:59;9.93;;;2.10;;
24483;SDS011;12643;51.620;7.548;2023-06-14T12:41:29;3.30;;;2.47;;
24483;SDS011;12643;51.620;7.548;2023-06-14T12:43:57;4.15;;;2.40;;
24483;SDS011;12643;51.620;7.548;2023-06-14T12:46:25;9.48;;;2.90;;
24483;SDS011;12643;51.620;7.548;2023-06-14T12:48:53;3.38;;;2.28;;
24483;SDS011;12643;51.620;7.548;2023-06-14T12:51:20;8.85;;;2.08;;
24483;SDS011;12643;51.620;7.548;2023-06-14T12:53:49;5.32;;;2.30;;
24483;SDS011;12643;51.620;7.548;2023-06-14T12:56:17;3.08;;;2.17;;
24483;SDS011;12643;51.620;7.548;2023-06-14T12:58:47;3.50;;;2.47;;
24483;SDS011;12643;51.620;7.548;2023-06-14T13:01:15;4.63;;;2.17;;
24483;SDS011;12643;51.620;7.548;2023-06-14T13:03:44;6.22;;;2.50;;
24483;SDS011;12643;51.620;7.548;2023-06-14T13:06:13;3.20;;;2.10;;
24483;SDS011;12643;51.620;7.548;2023-06-14T13:08:40;6.90;;;2.40;;
24483;SDS011;12643;51.620;7.548;2023-06-14T13:11:08;4.75;;;2.38;;
24483;SDS011;12643;51.620;7.548;2023-06-14T13:13:36;3.35;;;1.95;;
24483;SDS011;12643;51.620;7.548;2023-06-14T13:16:06;5.22;;;2.05;;
24483;SDS011;12643;51.620;7.548;2023-06-14T13:18:33;5.00;;;2.30;;
24483;SDS011;12643;51.620;7.548;2023-06-14T13:21:01;6.18;;;2.58;;
24483;SDS011;12643;51.620;7.548;2023-06-14T13:23:29;5.78;;;2.40;;
24483;SDS011;12643;51.620;7.548;2023-06-14T13:25:57;4.85;;;2.13;;
24483;SDS011;12643;51.620;7.548;2023-06-14T13:28:25;4.80;;;2.20;;
24483;SDS011;12643;51.620;7.548;2023-06-14T13:30:53;6.45;;;2.10;;
24483;SDS011;12643;51.620;7.548;2023-06-14T13:33:22;2.67;;;2.05;;
24483;SDS011;12643;51.620;7.548;2023-06-14T13:35:50;2.55;;;2.20;;
24483;SDS011;12643;51.620;7.548;2023-06-14T13:38:19;2.35;;;2.10;;
24483;SDS011;12643;51.620;7.548;2023-06-14T13:40:47;3.45;;;2.08;;
24483;SDS011;12643;51.620;7.548;2023-06-14T13:43:15;5.65;;;2.60;;
24483;SDS011;12643;51.620;7.548;2023-06-14T13:45:42;5.40;;;2.33;;
24483;SDS011;12643;51.620;7.548;2023-06-14T13:48:11;4.30;;;2.10;;
24483;SDS011;12643;51.620;7.548;2023-06-14T13:50:41;10.02;;;2.63;;
24483;SDS011;12643;51.620;7.548;2023-06-14T13:53:09;2.72;;;2.22;;
24483;SDS011;12643;51.620;7.548;2023-06-14T13:55:37;3.88;;;2.13;;
24483;SDS011;12643;51.620;7.548;2023-06-14T13:58:04;3.53;;;1.95;;
24483;SDS011;12643;51.620;7.548;2023-06-14T14:00:32;3.83;;;1.90;;
24483;SDS011;12643;51.620;7.548;2023-06-14T14:03:03;19.00;;;3.23;;
24483;SDS011;12643;51.620;7.548;2023-06-14T14:05:31;3.13;;;1.92;;
24483;SDS011;12643;51.620;7.548;2023-06-14T14:08:06;3.22;;;2.10;;
24483;SDS011;12643;51.620;7.548;2023-06-14T14:10:34;3.28;;;2.30;;
24483;SDS011;12643;51.620;7.548;2023-06-14T14:13:02;2.92;;;1.85;;
24483;SDS011;12643;51.620;7.548;2023-06-14T14:15:30;7.38;;;2.80;;
24483;SDS011;12643;51.620;7.548;2023-06-14T14:18:00;2.22;;;2.03;;
24483;SDS011;12643;51.620;7.548;2023-06-14T14:20:29;3.05;;;2.05;;
24483;SDS011;12643;51.620;7.548;2023-06-14T14:22:57;2.80;;;2.03;;
24483;SDS011;12643;51.620;7.548;2023-06-14T14:25:27;2.92;;;2.25;;
24483;SDS011;12643;51.620;7.548;2023-06-14T14:27:54;6.63;;;2.25;;
24483;SDS011;12643;51.620;7.548;2023-06-14T14:30:22;8.45;;;2.63;;
24483;SDS011;12643;51.620;7.548;2023-06-14T14:32:51;4.93;;;2.40;;
24483;SDS011;12643;51.620;7.548;2023-06-14T14:35:19;5.53;;;2.30;;
24483;SDS011;12643;51.620;7.548;2023-06-14T14:37:49;5.85;;;2.53;;
24483;SDS011;12643;51.620;7.548;2023-06-14T14:40:16;7.78;;;2.50;;
24483;SDS011;12643;51.620;7.548;2023-06-14T14:42:46;5.15;;;2.28;;
24483;SDS011;12643;51.620;7.548;2023-06-14T14:45:14;4.15;;;2.70;;
24483;SDS011;12643;51.620;7.548;2023-06-14T14:47:42;6.43;;;2.28;;
24483;SDS011;12643;51.620;7.548;2023-06-14T14:50:10;4.97;;;2.08;;
24483;SDS011;12643;51.620;7.548;2023-06-14T14:52:38;7.03;;;2.67;;
24483;SDS011;12643;51.620;7.548;2023-06-14T14:55:06;5.60;;;2.22;;
24483;SDS011;12643;51.620;7.548;2023-06-14T14:57:34;2.80;;;2.20;;
24483;SDS011;12643;51.620;7.548;2023-06-14T15:00:05;4.75;;;2.33;;
24483;SDS011;12643;51.620;7.548;2023-06-14T15:02:34;4.78;;;2.00;;
24483;SDS011;12643;51.620;7.548;2023-06-14T15:05:02;3.35;;;2.28;;
24483;SDS011;12643;51.620;7.548;2023-06-14T15:07:31;4.35;;;2.00;;
24483;SDS011;12643;51.620;7.548;2023-06-14T15:10:07;3.58;;;2.50;;